createdAt,value
2022-08-19T00:01:38.882Z,62.50
2022-08-19T00:04:41.377Z,62.50
2022-08-19T00:07:44.081Z,62.50
2022-08-19T00:10:47.041Z,62.50
2022-08-19T00:13:51.136Z,62.40
2022-08-19T00:16:55.608Z,62.40
2022-08-19T00:19:57.727Z,62.30
2022-08-19T00:22:59.699Z,62.20
2022-08-19T00:26:01.905Z,62.10
2022-08-19T00:29:05.366Z,61.90
2022-08-19T00:32:07.764Z,62.00
2022-08-19T00:35:12.726Z,62.00
2022-08-19T00:38:14.728Z,61.90
2022-08-19T00:41:22.330Z,61.90
2022-08-19T00:44:28.491Z,61.90
2022-08-19T00:47:30.489Z,61.80
2022-08-19T00:50:34.258Z,61.80
2022-08-19T00:53:36.691Z,61.70
2022-08-19T00:56:41.714Z,61.90
2022-08-19T01:00:00.906Z,61.80
2022-08-19T01:03:06.842Z,62.00
2022-08-19T01:06:08.819Z,62.00
2022-08-19T01:09:11.429Z,61.90
2022-08-19T01:12:13.853Z,61.90
2022-08-19T01:15:19.273Z,62.10
2022-08-19T01:18:21.772Z,62.10
2022-08-19T01:21:27.197Z,62.10
2022-08-19T01:24:29.382Z,62.10
2022-08-19T01:27:43.243Z,62.20
2022-08-19T01:30:51.128Z,62.20
2022-08-19T01:33:54.010Z,62.20
2022-08-19T01:36:56.042Z,62.40
2022-08-19T01:39:58.617Z,62.50
2022-08-19T01:43:01.073Z,62.60
2022-08-19T01:46:04.398Z,62.60
2022-08-19T01:49:06.780Z,62.50
2022-08-19T01:52:08.987Z,62.50
2022-08-19T01:55:13.207Z,62.60
2022-08-19T01:58:17.279Z,62.80
2022-08-19T02:01:19.278Z,63.20
2022-08-19T02:04:21.934Z,63.00
2022-08-19T02:07:24.908Z,63.10
2022-08-19T02:10:27.383Z,63.10
2022-08-19T02:13:29.753Z,63.30
2022-08-19T02:16:31.791Z,63.10
2022-08-19T02:19:33.940Z,63.10
2022-08-19T02:22:36.433Z,63.60
2022-08-19T02:25:38.582Z,63.60
2022-08-19T02:28:41.034Z,63.50
2022-08-19T02:31:42.992Z,63.50
2022-08-19T02:34:45.057Z,63.70
2022-08-19T02:38:05.269Z,63.80
2022-08-19T02:41:11.066Z,63.70
2022-08-19T02:44:30.018Z,63.80
2022-08-19T02:47:33.404Z,63.70
2022-08-19T02:50:38.401Z,63.60
2022-08-19T02:53:40.490Z,63.80
2022-08-19T02:56:43.377Z,64.00
2022-08-19T02:59:45.297Z,64.10
2022-08-19T03:02:47.958Z,64.40
2022-08-19T03:05:57.009Z,64.60
2022-08-19T03:08:59.214Z,64.70
2022-08-19T03:12:01.223Z,64.70
2022-08-19T03:15:03.326Z,64.60
2022-08-19T03:18:05.612Z,64.90
2022-08-19T03:21:12.463Z,65.00
2022-08-19T03:24:15.464Z,65.00
2022-08-19T03:27:18.739Z,65.50
2022-08-19T03:30:23.365Z,66.20
2022-08-19T03:33:28.549Z,66.00
2022-08-19T03:36:30.713Z,66.30
2022-08-19T03:39:32.820Z,66.20
2022-08-19T03:42:49.042Z,66.50
2022-08-19T03:46:00.370Z,66.70
2022-08-19T03:49:09.550Z,67.50
2022-08-19T03:52:11.784Z,67.70
2022-08-19T03:55:13.786Z,68.00
2022-08-19T03:58:15.721Z,68.10
2022-08-19T04:01:19.178Z,68.30
2022-08-19T04:04:21.210Z,68.90
2022-08-19T04:07:23.158Z,69.10
2022-08-19T04:10:25.297Z,69.40
2022-08-19T04:13:28.682Z,69.50
2022-08-19T04:16:41.013Z,70.30
2022-08-19T04:19:44.106Z,70.70
2022-08-19T04:22:46.186Z,70.60
2022-08-19T04:25:48.251Z,71.10
2022-08-19T04:28:50.276Z,70.00
2022-08-19T04:31:54.514Z,69.60
2022-08-19T04:35:01.393Z,69.10
2022-08-19T04:38:18.719Z,69.10
2022-08-19T04:41:39.163Z,68.90
2022-08-19T04:44:46.020Z,68.80
2022-08-19T04:47:58.270Z,68.30
2022-08-19T04:51:01.055Z,67.80
2022-08-19T04:54:04.060Z,67.50
2022-08-19T04:57:11.304Z,67.10
2022-08-19T05:00:13.637Z,66.70
2022-08-19T05:03:18.119Z,66.30
2022-08-19T05:06:21.793Z,65.90
2022-08-19T05:09:23.785Z,65.30
2022-08-19T05:12:29.179Z,64.90
2022-08-19T05:15:31.980Z,64.20
2022-08-19T05:18:52.415Z,62.70
2022-08-19T05:22:13.269Z,62.40
2022-08-19T05:25:20.215Z,62.20
2022-08-19T05:28:22.741Z,61.50
2022-08-19T05:31:24.689Z,61.20
2022-08-19T05:34:27.151Z,60.20
2022-08-19T05:37:29.107Z,59.80
2022-08-19T05:40:31.042Z,59.90
2022-08-19T05:43:36.330Z,60.30
2022-08-19T05:46:40.180Z,60.10
2022-08-19T05:49:42.754Z,60.00
2022-08-19T05:52:45.882Z,60.00
2022-08-19T05:55:52.393Z,59.80
2022-08-19T05:58:55.229Z,59.50
2022-08-19T06:01:58.408Z,59.50
2022-08-19T06:05:01.545Z,59.20
2022-08-19T06:08:03.695Z,59.10
2022-08-19T06:11:14.294Z,59.10
2022-08-19T06:14:21.577Z,58.50
2022-08-19T06:17:31.816Z,58.50
2022-08-19T06:20:54.396Z,58.10
2022-08-19T06:23:57.204Z,57.60
2022-08-19T06:27:01.465Z,56.90
2022-08-19T06:30:04.822Z,56.10
2022-08-19T06:33:06.736Z,54.40
2022-08-19T06:36:09.562Z,52.00
2022-08-19T06:39:13.232Z,50.80
2022-08-19T06:42:17.825Z,48.50
2022-08-19T06:45:24.654Z,47.50
2022-08-19T06:48:27.465Z,46.00
2022-08-19T06:51:30.340Z,45.00
2022-08-19T06:54:37.799Z,43.30
2022-08-19T06:57:56.472Z,42.20
2022-08-19T07:01:05.648Z,41.20
2022-08-19T07:04:12.125Z,40.90
2022-08-19T07:07:21.102Z,40.00
2022-08-19T07:10:23.739Z,39.40
2022-08-19T07:13:28.253Z,38.00
2022-08-19T07:16:30.466Z,36.60
2022-08-19T07:19:33.303Z,36.00
2022-08-19T07:22:35.928Z,36.20
2022-08-19T07:25:39.058Z,35.00
2022-08-19T07:28:46.066Z,34.90
2022-08-19T07:31:54.057Z,34.50
2022-08-19T07:34:57.180Z,34.40
2022-08-19T07:37:59.467Z,33.90
2022-08-19T07:41:02.042Z,34.50
2022-08-19T07:44:05.177Z,33.30
2022-08-19T07:47:07.979Z,34.00
2022-08-19T07:50:29.957Z,32.80
2022-08-19T07:53:35.619Z,32.70
2022-08-19T07:56:41.233Z,31.50
2022-08-19T07:59:44.290Z,30.30
2022-08-19T08:02:46.263Z,29.50
2022-08-19T08:06:09.346Z,29.30
2022-08-19T08:09:12.529Z,29.10
2022-08-19T08:12:33.681Z,28.30
2022-08-19T08:15:42.074Z,27.20
2022-08-19T08:18:50.255Z,27.60
2022-08-19T08:21:55.548Z,27.50
2022-08-19T08:24:59.357Z,27.80
2022-08-19T08:28:01.464Z,26.50
2022-08-19T08:31:03.398Z,26.10
2022-08-19T08:34:12.451Z,25.40
2022-08-19T08:37:16.250Z,25.50
2022-08-19T08:40:35.541Z,25.70
2022-08-19T08:43:40.155Z,25.70
2022-08-19T08:46:49.526Z,25.50
2022-08-19T08:49:57.151Z,25.30
2022-08-19T08:52:59.853Z,24.80
2022-08-19T08:56:04.151Z,23.00
2022-08-19T08:59:09.609Z,23.00
2022-08-19T09:02:11.536Z,23.10
2022-08-19T09:05:16.277Z,23.10
2022-08-19T09:08:25.059Z,23.30
2022-08-19T09:11:42.832Z,24.30
2022-08-19T09:14:52.589Z,23.30
2022-08-19T09:17:54.755Z,23.80
2022-08-19T09:20:57.904Z,25.00
2022-08-19T09:24:00.313Z,23.90
2022-08-19T09:27:05.575Z,24.90
2022-08-19T09:30:22.999Z,23.70
2022-08-19T09:33:25.006Z,22.90
2022-08-19T09:36:34.584Z,23.40
2022-08-19T09:39:42.440Z,23.60
2022-08-19T09:42:50.363Z,23.20
2022-08-19T09:45:54.593Z,22.60
2022-08-19T09:49:06.145Z,22.90
2022-08-19T09:52:13.594Z,22.70
2022-08-19T09:55:17.151Z,21.80
2022-08-19T09:58:24.689Z,22.10
2022-08-19T10:01:30.158Z,21.90
2022-08-19T10:04:50.653Z,21.80
2022-08-19T10:07:52.844Z,21.30
2022-08-19T10:10:56.058Z,20.50
2022-08-19T10:13:58.093Z,20.30
2022-08-19T10:17:01.429Z,20.90
2022-08-19T10:20:19.693Z,20.70
2022-08-19T10:23:22.374Z,21.00
2022-08-19T10:26:26.633Z,19.70
2022-08-19T10:29:32.056Z,20.40
2022-08-19T10:32:35.382Z,19.40
2022-08-19T10:35:42.804Z,19.40
2022-08-19T10:39:02.959Z,18.50
2022-08-19T10:42:05.930Z,19.70
2022-08-19T10:45:08.196Z,19.40
2022-08-19T10:48:12.247Z,19.50
2022-08-19T10:51:37.171Z,19.70
2022-08-19T10:55:08.531Z,19.30
2022-08-19T10:58:12.640Z,19.70
2022-08-19T11:01:17.373Z,19.70
2022-08-19T11:04:20.125Z,19.10
2022-08-19T11:07:22.437Z,19.10
2022-08-19T11:10:24.920Z,19.00
2022-08-19T11:13:26.932Z,19.00
2022-08-19T11:16:31.137Z,18.20
2022-08-19T11:19:33.272Z,17.70
2022-08-19T11:22:39.078Z,18.30
2022-08-19T11:25:43.606Z,17.10
2022-08-19T11:28:45.598Z,17.40
2022-08-19T11:31:48.925Z,17.30
2022-08-19T11:34:50.939Z,18.00
2022-08-19T11:37:53.120Z,17.20
2022-08-19T11:40:59.449Z,18.30
2022-08-19T11:44:04.085Z,19.90
2022-08-19T11:47:08.768Z,21.20
2022-08-19T11:50:10.936Z,21.30
2022-08-19T11:53:13.132Z,21.70
2022-08-19T11:56:15.047Z,22.60
2022-08-19T11:59:17.095Z,22.90
2022-08-19T12:02:20.131Z,22.00
2022-08-19T12:05:22.288Z,22.60
2022-08-19T12:08:24.357Z,22.50
2022-08-19T12:11:27.241Z,23.20
2022-08-19T12:14:31.170Z,23.60
2022-08-19T12:17:33.439Z,24.60
2022-08-19T12:20:36.937Z,24.80
2022-08-19T12:23:39.167Z,25.40
2022-08-19T12:26:52.754Z,25.90
2022-08-19T12:29:56.015Z,26.10
2022-08-19T12:32:58.389Z,26.30
2022-08-19T12:36:04.964Z,25.80
2022-08-19T12:39:07.686Z,25.30
2022-08-19T12:42:15.500Z,25.30
2022-08-19T12:45:17.625Z,25.10
2022-08-19T12:48:33.304Z,24.50
2022-08-19T12:51:35.987Z,23.00
2022-08-19T12:54:38.606Z,22.80
2022-08-19T12:57:40.721Z,23.90
2022-08-19T13:00:42.887Z,24.30
2022-08-19T13:03:46.562Z,23.50
2022-08-19T13:06:48.617Z,22.60
2022-08-19T13:09:52.431Z,22.80
2022-08-19T13:12:54.613Z,22.40
2022-08-19T13:16:01.056Z,21.60
2022-08-19T13:19:06.785Z,22.40
2022-08-19T13:22:13.102Z,20.00
2022-08-19T13:25:18.675Z,20.10
2022-08-19T13:28:20.889Z,20.50
2022-08-19T13:31:50.854Z,18.90
2022-08-19T13:34:53.047Z,18.40
2022-08-19T13:37:55.221Z,19.60
2022-08-19T13:40:57.298Z,18.90
2022-08-19T13:43:59.311Z,20.10
2022-08-19T13:47:09.317Z,20.40
2022-08-19T13:50:15.583Z,20.60
2022-08-19T13:53:18.153Z,20.90
2022-08-19T13:56:24.167Z,21.10
2022-08-19T13:59:28.157Z,20.80
2022-08-19T14:02:30.111Z,21.30
2022-08-19T14:05:38.301Z,20.80
2022-08-19T14:08:46.007Z,20.90
2022-08-19T14:11:48.509Z,21.20
2022-08-19T14:14:51.497Z,21.20
2022-08-19T14:17:53.859Z,21.10
2022-08-19T14:20:57.142Z,20.70
2022-08-19T14:24:01.009Z,20.50
2022-08-19T14:27:07.590Z,20.50
2022-08-19T14:30:13.386Z,21.10
2022-08-19T14:33:15.390Z,19.90
2022-08-19T14:36:19.159Z,20.00
2022-08-19T14:39:21.344Z,19.80
2022-08-19T14:42:23.339Z,20.20
2022-08-19T14:45:25.351Z,20.60
2022-08-19T14:48:29.084Z,20.80
2022-08-19T14:51:31.220Z,20.90
2022-08-19T14:54:33.214Z,23.00
2022-08-19T14:57:35.181Z,23.40
2022-08-19T15:00:37.356Z,23.90
2022-08-19T15:03:40.761Z,24.60
2022-08-19T15:06:43.414Z,24.30
2022-08-19T15:09:45.447Z,23.80
2022-08-19T15:12:51.472Z,23.00
2022-08-19T15:15:54.017Z,23.30
2022-08-19T15:18:57.860Z,23.30
2022-08-19T15:21:59.827Z,23.10
2022-08-19T15:25:02.116Z,23.60
2022-08-19T15:28:04.629Z,23.40
2022-08-19T15:31:06.605Z,23.50
2022-08-19T15:34:08.750Z,23.40
2022-08-19T15:37:10.720Z,23.90
2022-08-19T15:40:12.735Z,23.80
2022-08-19T15:43:17.136Z,23.40
2022-08-19T15:46:20.531Z,23.20
2022-08-19T15:49:22.454Z,23.40
2022-08-19T15:52:24.755Z,23.30
2022-08-19T15:55:33.225Z,22.90
2022-08-19T15:58:54.978Z,22.80
2022-08-19T16:02:15.499Z,22.60
2022-08-19T16:05:38.769Z,22.00
2022-08-19T16:08:47.954Z,22.00
2022-08-19T16:11:56.969Z,22.00
2022-08-19T16:15:01.851Z,22.40
2022-08-19T16:18:04.480Z,22.70
2022-08-19T16:21:08.190Z,22.40
2022-08-19T16:24:12.169Z,22.40
2022-08-19T16:27:16.669Z,22.30
2022-08-19T16:30:18.656Z,22.20
2022-08-19T16:33:22.987Z,22.60
2022-08-19T16:36:25.419Z,23.00
2022-08-19T16:39:27.411Z,23.60
2022-08-19T16:42:30.759Z,23.60
2022-08-19T16:45:32.780Z,24.50
2022-08-19T16:48:35.487Z,24.20
2022-08-19T16:51:39.734Z,24.00
2022-08-19T16:54:43.720Z,23.70
2022-08-19T16:57:47.064Z,23.70
2022-08-19T17:00:50.159Z,23.70
2022-08-19T17:03:53.113Z,23.70
2022-08-19T17:06:55.508Z,23.80
2022-08-19T17:09:57.716Z,24.20
2022-08-19T17:13:00.160Z,24.20
2022-08-19T17:16:02.846Z,24.80
2022-08-19T17:19:06.191Z,25.00
2022-08-19T17:22:11.499Z,25.00
2022-08-19T17:25:13.520Z,25.10
2022-08-19T17:28:17.119Z,24.90
2022-08-19T17:31:21.262Z,24.60
2022-08-19T17:34:23.215Z,24.30
2022-08-19T17:37:25.250Z,24.60
2022-08-19T17:40:29.946Z,24.60
2022-08-19T17:43:34.542Z,24.00
2022-08-19T17:46:42.680Z,23.70
2022-08-19T17:49:44.664Z,24.00
2022-08-19T17:52:46.578Z,24.40
2022-08-19T17:55:48.517Z,24.50
2022-08-19T17:59:00.220Z,24.60
2022-08-19T18:02:04.501Z,24.70
2022-08-19T18:05:06.728Z,24.80
2022-08-19T18:08:10.688Z,24.70
2022-08-19T18:11:12.819Z,24.50
2022-08-19T18:14:15.511Z,24.20
2022-08-19T18:17:19.234Z,24.40
2022-08-19T18:20:23.605Z,24.60
2022-08-19T18:23:44.009Z,24.60
2022-08-19T18:26:48.203Z,24.40
2022-08-19T18:29:50.399Z,24.60
2022-08-19T18:32:53.696Z,24.50
2022-08-19T18:35:55.643Z,24.60
2022-08-19T18:39:26.877Z,24.50
2022-08-19T18:42:49.868Z,24.90
2022-08-19T18:46:10.269Z,25.00
2022-08-19T18:49:15.078Z,25.50
2022-08-19T18:52:22.567Z,25.20
2022-08-19T18:55:25.603Z,25.20
2022-08-19T18:58:35.392Z,25.10
2022-08-19T19:01:39.688Z,25.20
2022-08-19T19:04:42.253Z,25.70
2022-08-19T19:07:44.173Z,25.90
2022-08-19T19:10:46.250Z,26.10
2022-08-19T19:13:49.634Z,27.10
2022-08-19T19:16:51.943Z,26.60
2022-08-19T19:19:53.969Z,27.00
2022-08-19T19:22:56.084Z,27.10
2022-08-19T19:26:01.155Z,27.30
2022-08-19T19:29:03.249Z,27.30
2022-08-19T19:32:07.587Z,27.20
2022-08-19T19:35:12.664Z,27.30
2022-08-19T19:38:14.833Z,27.40
2022-08-19T19:41:18.740Z,27.30
2022-08-19T19:44:30.915Z,27.50
2022-08-19T19:47:34.389Z,27.80
2022-08-19T19:50:36.365Z,27.70
2022-08-19T19:53:39.002Z,28.00
2022-08-19T19:56:46.182Z,28.20
2022-08-19T19:59:51.730Z,28.50
2022-08-19T20:02:56.872Z,29.20
2022-08-19T20:05:59.465Z,29.40
2022-08-19T20:09:17.571Z,29.60
2022-08-19T20:12:21.418Z,30.00
2022-08-19T20:15:24.348Z,30.40
2022-08-19T20:18:26.514Z,30.70
2022-08-19T20:21:32.352Z,31.20
2022-08-19T20:24:36.278Z,31.20
2022-08-19T20:27:40.126Z,31.50
2022-08-19T20:30:46.492Z,31.20
2022-08-19T20:33:50.354Z,31.80
2022-08-19T20:36:52.474Z,31.60
2022-08-19T20:39:54.599Z,31.80
2022-08-19T20:42:56.997Z,32.20
2022-08-19T20:45:59.085Z,31.90
2022-08-19T20:49:01.316Z,31.90
2022-08-19T20:52:08.108Z,32.20
2022-08-19T20:55:11.247Z,31.90
2022-08-19T20:58:13.732Z,32.40
2022-08-19T21:01:17.246Z,32.50
2022-08-19T21:04:22.470Z,32.70
2022-08-19T21:07:24.423Z,32.90
2022-08-19T21:10:42.446Z,33.00
2022-08-19T21:13:44.546Z,33.20
2022-08-19T21:16:47.056Z,33.20
2022-08-19T21:19:48.962Z,33.20
2022-08-19T21:22:50.921Z,33.50
2022-08-19T21:25:54.473Z,33.50
2022-08-19T21:28:56.737Z,33.60
2022-08-19T21:31:58.760Z,33.90
2022-08-19T21:35:02.302Z,33.90
2022-08-19T21:38:04.234Z,34.10
2022-08-19T21:41:07.106Z,34.20
2022-08-19T21:44:09.098Z,34.60
2022-08-19T21:47:11.031Z,35.00
2022-08-19T21:50:14.141Z,35.40
2022-08-19T21:53:17.464Z,35.20
2022-08-19T21:56:19.829Z,35.30
2022-08-19T21:59:23.707Z,35.80
2022-08-19T22:02:28.236Z,36.00
2022-08-19T22:05:33.783Z,36.40
2022-08-19T22:08:36.364Z,36.50
2022-08-19T22:11:38.311Z,36.40
2022-08-19T22:14:40.343Z,36.40
2022-08-19T22:17:42.693Z,36.20
2022-08-19T22:20:46.116Z,36.30
2022-08-19T22:23:48.453Z,36.20
2022-08-19T22:26:50.482Z,36.20
2022-08-19T22:29:53.390Z,36.40
2022-08-19T22:33:00.946Z,36.30
2022-08-19T22:36:04.541Z,36.30
2022-08-19T22:39:06.799Z,36.30
2022-08-19T22:42:09.388Z,36.40
2022-08-19T22:45:12.907Z,36.30
2022-08-19T22:48:16.669Z,36.50
2022-08-19T22:51:37.954Z,36.70
2022-08-19T22:54:39.847Z,36.70
2022-08-19T22:57:41.875Z,36.60
2022-08-19T23:00:44.031Z,36.50
2022-08-19T23:03:46.347Z,36.40
2022-08-19T23:06:53.011Z,36.70
2022-08-19T23:09:55.176Z,36.70
2022-08-19T23:12:57.925Z,36.60
2022-08-19T23:16:00.076Z,36.50
2022-08-19T23:19:02.947Z,36.80
2022-08-19T23:22:07.011Z,36.80
2022-08-19T23:25:11.245Z,37.20
2022-08-19T23:28:32.495Z,37.10
2022-08-19T23:31:36.351Z,37.30
2022-08-19T23:34:38.380Z,38.20
2022-08-19T23:37:40.599Z,37.30
2022-08-19T23:40:42.851Z,37.60
2022-08-19T23:43:44.956Z,37.50
2022-08-19T23:46:54.357Z,37.80
2022-08-19T23:49:58.084Z,37.80
2022-08-19T23:53:00.546Z,37.80
2022-08-19T23:56:02.587Z,37.80
2022-08-19T23:59:05.335Z,37.90
